Aviation Digital Data Service (ADDS)

Output produced by METARs form (1648 UTC 16 June 2019)
found at http://www.aviationweather.gov/metar/data/
 
Forecast for: HLMS (MISRATA , LY)
Text: TAF HLMS 161100Z 1612/1712 09010KT CAVOK
Forecast period: 1200 to 2100 UTC 16 June 2019
Forecast type: FROM: standard forecast or significant change
Winds: from the E (90 degrees) at 12 MPH (10 knots; 5.1 m/s)
Visibility: 6 or more miles 10+ km)
Ceiling: unknown
Clouds: missing
Weather: NSW  (no significant weather)
Text: BECMG 1621/1623 VRB02KT
Forecast period: 2100 UTC 16 June 2019 to 0800 UTC 17 June 2019
Forecast type: BECOMING: Conditions expected to become as follows by 2300 UTC 16 June 2019
Winds: variable direction winds at 2 MPH (2 knots; 1.0 m/s)
Visibility: 6 or more miles 10+ km)
Ceiling: unknown
Clouds: missing
Weather: NSW  (no significant weather)
Text: PROB30
Forecast period: 0000 to 0600 UTC 17 June 2019
Forecast type: TEMPORARY: The following changes expected for less than half the time period
Visibility: 2.49 miles (4.01 km)
Ceiling: unknown
Clouds: missing
Weather: BR  (mist)
Text: TEMPO 1700/1706 4000 BR NSC
Forecast period: 0800 to 1200 UTC 17 June 2019
Forecast type: BECOMING: Conditions expected to become as follows by 1000 UTC 17 June 2019
Winds: from the SE (140 degrees) at 12 MPH (10 knots; 5.1 m/s)
Visibility: 6 or more miles 10+ km)
Ceiling: unknown
Clouds: missing
Weather: NSW  (no significant weather)